.
WxDataArchive / Data Records for 2008-03-29
2008-03-28 March 2008 2008-03-30

Data Records for Saturday, 29 March 2008

Time	Temp	Chill	HIndex	Humid	Dewpt	 Wind 	HiWind	WindDir	Rain 	Barom 
-----	----	-----	------	-----	-----	------	------	-------	-----	----- 
00:00	29.7	29.7	29.7	73	22.1	0	1	90	0.00	30.341 
00:05	29.5	29.5	29.5	74	22.3	0	1	90	0.00	30.341 
00:10	29.4	29.4	29.4	74	22.2	0	1	90	0.00	30.343 
00:15	29.3	29.3	29.3	75	22.4	0	1	90	0.00	30.342 
00:20	29.1	29.1	29.1	75	22.2	0	0	---	0.00	30.342 
00:25	29.0	29.0	29.0	75	22.1	0	0	---	0.00	30.342 
00:30	28.8	28.8	28.8	76	22.2	0	0	---	0.00	30.342 
00:35	28.5	28.5	28.5	76	21.9	0	0	---	0.00	30.341 
00:40	28.4	28.4	28.4	76	21.8	0	0	---	0.00	30.342 
00:45	28.1	28.1	28.1	77	21.8	0	0	---	0.00	30.343 
00:50	27.9	27.9	27.9	77	21.6	0	1	90	0.00	30.343 
00:55	27.8	27.8	27.8	78	21.8	0	0	---	0.00	30.344 
01:00	27.6	27.6	27.6	78	21.7	0	0	---	0.00	30.347 
01:05	27.6	27.6	27.6	79	22.0	0	0	---	0.00	30.349 
01:10	27.5	27.5	27.5	79	21.9	0	0	---	0.00	30.351 
01:15	27.3	27.3	27.3	79	21.7	0	0	---	0.00	30.355 
01:20	27.2	27.2	27.2	80	21.9	0	0	---	0.00	30.355 
01:25	27.0	27.0	27.0	80	21.7	0	0	---	0.00	30.354 
01:30	26.9	26.9	26.9	80	21.6	0	0	---	0.00	30.352 
01:35	26.9	26.9	26.9	81	21.9	0	0	---	0.00	30.352 
01:40	26.7	26.7	26.7	81	21.7	0	0	---	0.00	30.353 
01:45	26.6	26.6	26.6	81	21.6	0	0	---	0.00	30.353 
01:50	26.6	26.6	26.6	81	21.6	0	0	---	0.00	30.353 
01:55	26.4	26.4	26.4	82	21.7	0	0	---	0.00	30.355 
02:00	26.3	26.3	26.3	82	21.6	0	0	---	0.00	30.356 
02:05	26.1	26.1	26.1	82	21.4	0	0	---	0.00	30.358 
02:10	26.0	26.0	26.0	82	21.3	0	0	---	0.00	30.358 
02:15	25.7	25.7	25.7	82	21.0	0	0	---	0.00	30.359 
02:20	25.4	25.4	25.4	83	21.0	0	0	---	0.00	30.359 
02:25	25.3	25.3	25.3	83	20.9	0	0	---	0.00	30.362 
02:30	25.1	25.1	25.1	84	21.0	0	0	---	0.00	30.363 
02:35	25.0	25.0	25.0	84	20.9	0	0	---	0.00	30.365 
02:40	25.0	25.0	25.0	84	20.9	0	0	---	0.00	30.363 
02:45	24.8	24.8	24.8	85	20.9	0	0	---	0.00	30.365 
02:50	24.7	24.7	24.7	85	20.8	0	0	---	0.00	30.364 
02:55	24.5	24.5	24.5	85	20.6	0	0	---	0.00	30.365 
03:00	24.2	24.2	24.2	85	20.4	0	0	---	0.00	30.363 
03:05	24.1	24.1	24.1	86	20.5	0	0	---	0.00	30.367 
03:10	23.9	23.9	23.9	86	20.3	0	0	---	0.00	30.367 
03:15	23.9	23.9	23.9	86	20.3	0	0	---	0.00	30.372 
03:20	23.8	23.8	23.8	86	20.2	0	0	---	0.00	30.373 
03:25	23.6	23.6	23.6	87	20.3	0	0	---	0.00	30.373 
03:30	23.6	23.6	23.6	87	20.3	0	0	---	0.00	30.372 
03:35	23.5	23.5	23.5	87	20.2	0	0	---	0.00	30.370 
03:40	23.5	23.5	23.5	88	20.5	0	0	---	0.00	30.371 
03:45	23.6	23.6	23.6	88	20.6	0	0	---	0.00	30.371 
03:50	23.6	23.6	23.6	88	20.6	0	0	---	0.00	30.373 
03:55	23.6	23.6	23.6	88	20.6	0	0	---	0.00	30.370 
04:00	23.5	23.5	23.5	88	20.5	0	0	---	0.00	30.370 
04:05	23.3	23.3	23.3	88	20.3	0	0	---	0.00	30.371 
04:10	23.3	23.3	23.3	88	20.3	0	0	---	0.00	30.373 
04:15	23.2	23.2	23.2	88	20.2	0	0	---	0.00	30.374 
04:20	23.0	23.0	23.0	89	20.3	0	0	---	0.00	30.373 
04:25	23.0	23.0	23.0	89	20.3	0	0	---	0.00	30.374 
04:30	22.9	22.9	22.9	89	20.2	0	0	---	0.00	30.376 
04:35	22.7	22.7	22.7	89	20.0	0	0	---	0.00	30.377 
04:40	22.7	22.7	22.7	89	20.0	0	0	---	0.00	30.378 
04:45	22.7	22.7	22.7	89	20.0	0	0	---	0.00	30.378 
04:50	22.9	22.9	22.9	89	20.2	0	0	---	0.00	30.378 
04:55	22.9	22.9	22.9	90	20.4	0	0	---	0.00	30.381 
05:00	23.0	23.0	23.0	90	20.5	0	0	---	0.00	30.382 
05:05	23.0	23.0	23.0	90	20.5	0	0	---	0.00	30.386 
05:10	23.2	23.2	23.2	90	20.7	0	0	---	0.00	30.388 
05:15	23.0	23.0	23.0	90	20.5	0	0	---	0.00	30.391 
05:20	23.0	23.0	23.0	90	20.5	0	0	---	0.00	30.394 
05:25	22.9	22.9	22.9	90	20.4	0	0	---	0.00	30.395 
05:30	22.9	22.9	22.9	90	20.4	0	0	---	0.00	30.397 
05:35	22.9	22.9	22.9	90	20.4	0	0	---	0.00	30.399 
05:40	22.7	22.7	22.7	90	20.2	0	0	---	0.00	30.402 
05:45	22.7	22.7	22.7	91	20.5	0	0	---	0.00	30.406 
05:50	22.7	22.7	22.7	91	20.5	0	0	---	0.00	30.408 
05:55	22.5	22.5	22.5	91	20.3	0	0	---	0.00	30.407 
06:00	22.4	22.4	22.4	91	20.2	0	0	---	0.00	30.407 
06:05	22.2	22.2	22.2	91	20.0	0	0	---	0.00	30.410 
06:10	22.2	22.2	22.2	91	20.0	0	0	---	0.00	30.410 
06:15	22.2	22.2	22.2	91	20.0	0	0	---	0.00	30.412 
06:20	22.2	22.2	22.2	91	20.0	0	0	---	0.00	30.412 
06:25	22.2	22.2	22.2	91	20.0	0	0	---	0.00	30.412 
06:30	22.1	22.1	22.1	91	19.9	0	0	---	0.00	30.413 
06:35	21.9	21.9	21.9	91	19.7	0	0	---	0.00	30.414 
06:40	21.9	21.9	21.9	91	19.7	0	0	---	0.00	30.417 
06:45	21.9	21.9	21.9	91	19.7	0	0	---	0.00	30.421 
06:50	22.1	22.1	22.1	91	19.9	0	0	---	0.00	30.426 
06:55	22.2	22.2	22.2	91	20.0	0	0	---	0.00	30.427 
07:00	22.4	22.4	22.4	92	20.4	0	0	---	0.00	30.429 
07:05	22.7	22.7	22.7	92	20.7	0	0	---	0.00	30.431 
07:10	23.2	23.2	23.2	92	21.2	0	0	---	0.00	30.430 
07:15	23.9	23.9	23.9	93	22.2	0	0	---	0.00	30.430 
07:20	24.8	24.8	24.8	93	23.1	0	1	90	0.00	30.428 
07:25	25.8	25.8	25.8	93	24.1	0	1	90	0.00	30.428 
07:30	26.9	26.9	26.9	92	24.9	0	2	90	0.00	30.427 
07:35	27.8	27.8	27.8	90	25.3	0	1	90	0.00	30.426 
07:40	28.5	28.5	28.5	85	24.6	1	5	112	0.00	30.426 
07:45	29.1	29.1	29.1	82	24.3	1	3	90	0.00	30.425 
07:50	29.7	29.7	29.7	81	24.6	1	4	22	0.00	30.426 
07:55	30.0	30.0	30.0	80	24.6	1	4	112	0.00	30.427 
08:00	30.3	30.3	30.3	79	24.6	1	5	112	0.00	30.429 
08:05	30.3	30.3	30.3	79	24.6	2	6	112	0.00	30.432 
08:10	30.4	30.4	30.4	78	24.4	3	6	112	0.00	30.434 
08:15	30.4	30.4	30.4	79	24.7	3	7	112	0.00	30.436 
08:20	30.6	30.6	30.6	79	24.9	3	7	112	0.00	30.435 
08:25	30.9	30.9	30.9	77	24.6	3	7	112	0.00	30.435 
08:30	31.0	26.9	31.0	78	25.0	4	6	112	0.00	30.433 
08:35	31.3	31.3	31.3	79	25.6	2	6	112	0.00	30.433 
08:40	31.8	31.8	31.8	77	25.4	3	7	112	0.00	30.433 
08:45	32.1	28.2	32.1	76	25.4	4	8	112	0.00	30.433 
08:50	32.2	32.2	32.2	77	25.8	3	7	112	0.00	30.436 
08:55	32.5	32.5	32.5	77	26.1	3	6	112	0.00	30.435 
09:00	33.1	29.3	33.1	76	26.4	4	7	112	0.00	30.436 
09:05	33.4	33.4	33.4	75	26.3	3	7	112	0.00	30.440 
09:10	33.8	33.8	33.8	76	27.1	3	6	112	0.00	30.437 
09:15	34.7	34.7	34.7	75	27.6	2	5	112	0.00	30.437 
09:20	35.3	35.3	35.3	71	26.9	2	5	90	0.00	30.437 
09:25	35.8	35.8	35.8	72	27.7	2	5	90	0.00	30.436 
09:30	35.9	35.9	35.9	69	26.7	3	7	90	0.00	30.437 
09:35	35.8	35.8	35.8	70	27.0	3	7	112	0.00	30.438 
09:40	36.0	32.7	36.0	68	26.5	4	9	90	0.00	30.438 
09:45	36.6	36.6	36.6	69	27.4	2	6	112	0.00	30.439 
09:50	37.2	37.2	37.2	67	27.3	3	6	112	0.00	30.438 
09:55	37.6	37.6	37.6	61	25.4	3	10	112	0.00	30.437 
10:00	37.6	37.6	37.6	63	26.2	3	6	112	0.00	30.437 
10:05	38.0	38.0	38.0	63	26.5	3	6	112	0.00	30.436 
10:10	37.9	34.9	37.9	61	25.7	4	9	112	0.00	30.437 
10:15	38.3	38.3	38.3	63	26.8	3	6	112	0.00	30.437 
10:20	38.9	38.9	38.9	60	26.2	3	6	112	0.00	30.436 
10:25	38.8	35.9	38.8	59	25.7	4	10	112	0.00	30.435 
10:30	38.6	34.8	38.6	59	25.5	5	9	112	0.00	30.435 
10:35	39.5	39.5	39.5	61	27.2	2	4	90	0.00	30.437 
10:40	40.1	37.4	40.1	54	24.8	4	9	112	0.00	30.437 
10:45	39.8	37.1	39.8	55	25.0	4	10	112	0.00	30.436 
10:50	39.9	37.2	39.9	56	25.5	4	10	112	0.00	30.434 
10:55	39.6	36.9	39.6	56	25.2	4	7	112	0.00	30.435 
11:00	39.6	36.9	39.6	55	24.8	4	12	112	0.00	30.435 
11:05	39.5	35.9	39.5	54	24.2	5	10	112	0.00	30.434 
11:10	39.6	36.9	39.6	56	25.2	4	10	112	0.00	30.434 
11:15	40.3	40.3	40.3	55	25.4	3	7	112	0.00	30.435 
11:20	40.5	37.1	40.5	52	24.3	5	12	112	0.00	30.436 
11:25	40.5	37.1	40.5	53	24.7	5	12	112	0.00	30.435 
11:30	40.3	36.8	40.3	54	25.0	5	11	112	0.00	30.435 
11:35	40.2	37.5	40.2	54	24.9	4	9	112	0.00	30.435 
11:40	40.8	38.2	40.8	53	25.0	4	9	90	0.00	30.435 
11:45	40.9	38.4	40.9	53	25.1	4	10	112	0.00	30.434 
11:50	40.9	38.4	40.9	54	25.6	4	11	90	0.00	30.433 
11:55	40.8	37.4	40.8	53	25.0	5	10	112	0.00	30.431 
12:00	40.9	37.5	40.9	54	25.6	5	11	112	0.00	30.428 
12:05	41.1	37.8	41.1	54	25.7	5	10	112	0.00	30.430 
12:10	41.2	37.9	41.2	55	26.3	5	14	112	0.00	30.426 
12:15	41.2	37.9	41.2	56	26.7	5	11	112	0.00	30.425 
12:20	41.2	38.7	41.2	53	25.4	4	10	112	0.00	30.422 
12:25	41.2	37.2	41.2	52	24.9	6	11	90	0.00	30.421 
12:30	40.9	37.5	40.9	51	24.2	5	11	112	0.00	30.419 
12:35	41.5	38.2	41.5	51	24.7	5	12	112	0.00	30.417 
12:40	41.8	38.6	41.8	52	25.5	5	10	112	0.00	30.417 
12:45	41.8	38.6	41.8	52	25.5	5	10	90	0.00	30.417 
12:50	42.1	42.1	42.1	54	26.7	3	10	112	0.00	30.413 
12:55	42.1	38.9	42.1	54	26.7	5	12	112	0.00	30.411 
13:00	41.9	38.7	41.9	55	26.9	5	12	112	0.00	30.406 
13:05	41.9	38.7	41.9	56	27.4	5	12	112	0.00	30.409 
13:10	42.1	38.9	42.1	53	26.2	5	13	90	0.00	30.409 
13:15	42.2	39.1	42.2	55	27.2	5	11	90	0.00	30.405 
13:20	42.5	38.7	42.5	53	26.6	6	11	112	0.00	30.404 
13:25	42.2	38.4	42.2	52	25.9	6	11	90	0.00	30.403 
13:30	42.6	39.5	42.6	50	25.3	5	11	112	0.00	30.403 
13:35	42.5	38.2	42.5	54	27.0	7	14	112	0.00	30.401 
13:40	42.8	39.8	42.8	53	26.9	5	11	112	0.00	30.397 
13:45	42.9	40.7	42.9	51	26.0	4	10	112	0.00	30.391 
13:50	43.2	41.0	43.2	52	26.8	4	14	112	0.00	30.390 
13:55	42.9	39.2	42.9	51	26.0	6	12	112	0.00	30.388 
14:00	42.9	39.9	42.9	50	25.6	5	13	112	0.00	30.384 
14:05	42.8	38.5	42.8	51	25.9	7	15	90	0.00	30.385 
14:10	42.8	39.1	42.8	52	26.4	6	12	112	0.00	30.380 
14:15	43.1	40.1	43.1	50	25.7	5	13	112	0.00	30.375 
14:20	43.1	39.5	43.1	51	26.2	6	17	112	0.00	30.376 
14:25	43.1	38.9	43.1	50	25.7	7	13	112	0.00	30.375 
14:30	43.3	41.1	43.3	49	25.4	4	10	90	0.00	30.374 
14:35	43.3	39.1	43.3	52	26.9	7	14	112	0.00	30.373 
14:40	43.2	39.0	43.2	52	26.8	7	12	112	0.00	30.373 
14:45	43.5	40.6	43.5	51	26.6	5	11	90	0.00	30.372 
14:50	43.5	39.9	43.5	52	27.1	6	14	112	0.00	30.370 
14:55	43.3	39.7	43.3	53	27.3	6	17	112	0.00	30.368 
15:00	43.3	39.1	43.3	53	27.3	7	13	112	0.00	30.370 
15:05	43.2	39.6	43.2	52	26.8	6	19	112	0.00	30.370 
15:10	43.2	39.6	43.2	51	26.3	6	15	112	0.00	30.366 
15:15	43.2	40.2	43.2	51	26.3	5	12	112	0.00	30.363 
15:20	43.3	40.3	43.3	51	26.4	5	13	112	0.00	30.362 
15:25	43.5	39.9	43.5	51	26.6	6	16	112	0.00	30.359 
15:30	43.2	40.2	43.2	52	26.8	5	13	90	0.00	30.361 
15:35	43.1	38.9	43.1	50	25.7	7	15	112	0.00	30.364 
15:40	43.1	39.5	43.1	50	25.7	6	11	112	0.00	30.362 
15:45	42.9	38.6	42.9	50	25.6	7	14	112	0.00	30.359 
15:50	42.9	38.6	42.9	51	26.0	7	12	112	0.00	30.358 
15:55	42.9	39.9	42.9	52	26.5	5	13	112	0.00	30.358 
16:00	43.3	39.7	43.3	50	25.9	6	12	112	0.00	30.356 
16:05	43.2	39.6	43.2	50	25.8	6	15	112	0.00	30.355 
16:10	43.2	38.5	43.2	49	25.3	8	16	112	0.00	30.357 
16:15	42.9	38.1	42.9	49	25.1	8	14	112	0.00	30.356 
16:20	42.9	38.6	42.9	52	26.5	7	13	112	0.00	30.352 
16:25	43.2	39.6	43.2	50	25.8	6	13	112	0.00	30.346 
16:30	43.3	39.1	43.3	49	25.4	7	12	112	0.00	30.351 
16:35	43.5	40.6	43.5	50	26.1	5	11	112	0.00	30.347 
16:40	43.5	39.9	43.5	47	24.6	6	12	112	0.00	30.346 
16:45	43.2	39.6	43.2	49	25.3	6	13	90	0.00	30.349 
16:50	43.2	39.6	43.2	52	26.8	6	15	112	0.00	30.347 
16:55	43.2	39.0	43.2	52	26.8	7	14	90	0.00	30.344 
17:00	43.3	40.3	43.3	52	26.9	5	11	112	0.00	30.348 
17:05	43.1	38.9	43.1	53	27.1	7	14	112	0.00	30.353 
17:10	43.1	40.1	43.1	53	27.1	5	10	112	0.00	30.353 
17:15	42.9	38.6	42.9	53	27.0	7	15	112	0.00	30.351 
17:20	42.6	38.3	42.6	53	26.7	7	14	90	0.00	30.350 
17:25	42.5	38.2	42.5	52	26.1	7	15	90	0.00	30.355 
17:30	42.5	38.7	42.5	55	27.5	6	17	112	0.00	30.351 
17:35	42.5	40.2	42.5	56	27.9	4	10	112	0.00	30.355 
17:40	42.2	37.8	42.2	55	27.2	7	16	112	0.00	30.358 
17:45	41.9	37.4	41.9	56	27.4	7	14	112	0.00	30.353 
17:50	41.8	37.9	41.8	57	27.7	6	13	112	0.00	30.354 
17:55	41.5	37.5	41.5	58	27.8	6	12	90	0.00	30.353 
18:00	41.2	37.9	41.2	59	28.0	5	11	112	0.00	30.355 
18:05	40.9	36.2	40.9	59	27.7	7	14	112	0.00	30.357 
18:10	40.6	35.9	40.6	60	27.8	7	14	112	0.00	30.361 
18:15	40.3	35.5	40.3	60	27.5	7	15	112	0.00	30.359 
18:20	40.1	35.3	40.1	60	27.3	7	14	112	0.00	30.359 
18:25	39.8	35.5	39.8	61	27.5	6	15	112	0.00	30.359 
18:30	39.5	35.2	39.5	62	27.6	6	12	90	0.00	30.351 
18:35	38.9	34.4	38.9	63	27.4	6	12	90	0.00	30.352 
18:40	38.6	34.8	38.6	64	27.5	5	11	90	0.00	30.353 
18:45	38.2	34.4	38.2	64	27.1	5	11	112	0.00	30.352 
18:50	37.8	31.9	37.8	63	26.4	8	16	112	0.00	30.352 
18:55	37.3	31.9	37.3	64	26.3	7	15	112	0.00	30.350 
19:00	37.0	30.9	37.0	64	26.0	8	16	112	0.00	30.351 
19:05	36.8	31.3	36.8	65	26.2	7	16	112	0.00	30.343 
19:10	36.6	31.0	36.6	65	26.0	7	14	90	0.00	30.348 
19:15	36.5	31.6	36.5	65	25.9	6	10	90	0.00	30.346 
19:20	36.2	32.9	36.2	66	26.0	4	11	90	0.00	30.344 
19:25	36.0	32.7	36.0	67	26.1	4	14	112	0.00	30.344 
19:30	35.8	30.8	35.8	66	25.6	6	15	112	0.00	30.343 
19:35	35.6	35.6	35.6	67	25.7	3	9	112	0.00	30.346 
19:40	35.5	35.5	35.5	68	26.0	3	8	112	0.00	30.350 
19:45	35.3	31.0	35.3	69	26.2	5	12	90	0.00	30.354 
19:50	35.0	29.1	35.0	69	25.9	7	14	112	0.00	30.357 
19:55	34.7	31.2	34.7	69	25.6	4	12	112	0.00	30.356 
20:00	34.6	30.1	34.6	69	25.5	5	11	90	0.00	30.357 
20:05	34.3	29.0	34.3	69	25.2	6	13	112	0.00	30.355 
20:10	34.0	29.4	34.0	69	24.9	5	9	112	0.00	30.355 
20:15	33.8	28.4	33.8	69	24.7	6	13	112	0.00	30.352 
20:20	33.7	28.3	33.7	66	23.6	6	14	90	0.00	30.355 
20:25	33.5	28.0	33.5	65	23.0	6	14	112	0.00	30.358 
20:30	33.4	28.7	33.4	66	23.3	5	12	112	0.00	30.358 
20:35	33.2	28.5	33.2	67	23.4	5	9	112	0.00	30.358 
20:40	33.1	28.4	33.1	66	23.0	5	12	112	0.00	30.358 
20:45	32.9	27.3	32.9	64	22.1	6	16	112	0.00	30.359 
20:50	32.8	28.0	32.8	63	21.6	5	9	112	0.00	30.359 
20:55	32.7	27.9	32.7	63	21.5	5	11	112	0.00	30.358 
21:00	32.7	27.1	32.7	63	21.5	6	12	112	0.00	30.356 
21:05	32.5	27.7	32.5	63	21.3	5	13	90	0.00	30.352 
21:10	32.2	25.7	32.2	62	20.7	7	12	112	0.00	30.350 
21:15	32.1	27.2	32.1	63	20.9	5	12	90	0.00	30.351 
21:20	31.9	28.0	31.9	64	21.1	4	13	90	0.00	30.354 
21:25	31.8	26.0	31.8	63	20.7	6	11	90	0.00	30.352 
21:30	31.6	27.6	31.6	63	20.5	4	10	112	0.00	30.347 
21:35	31.5	26.5	31.5	63	20.4	5	12	112	0.00	30.352 
21:40	31.5	26.5	31.5	63	20.4	5	12	112	0.00	30.344 
21:45	31.3	27.3	31.3	64	20.6	4	10	90	0.00	30.343 
21:50	31.3	26.3	31.3	64	20.6	5	12	112	0.00	30.342 
21:55	31.2	27.2	31.2	64	20.5	4	11	90	0.00	30.344 
22:00	31.2	26.1	31.2	65	20.8	5	11	112	0.00	30.348 
22:05	31.0	25.9	31.0	65	20.6	5	13	112	0.00	30.341 
22:10	31.0	25.9	31.0	65	20.6	5	12	90	0.00	30.338 
22:15	31.0	25.9	31.0	65	20.6	5	14	112	0.00	30.336 
22:20	31.0	25.9	31.0	66	21.0	5	11	112	0.00	30.334 
22:25	30.9	25.8	30.9	67	21.3	5	12	112	0.00	30.330 
22:30	30.9	25.8	30.9	67	21.3	5	11	112	0.00	30.327 
22:35	30.7	25.5	30.7	67	21.1	5	11	112	0.00	30.324 
22:40	30.7	25.5	30.7	67	21.1	5	13	112	0.00	30.323 
22:45	30.7	25.5	30.7	67	21.1	5	12	90	0.00	30.323 
22:50	30.7	25.5	30.7	67	21.1	5	11	90	0.00	30.322 
22:55	30.7	25.5	30.7	68	21.4	5	12	112	0.00	30.321 
23:00	30.7	24.7	30.7	67	21.1	6	14	112	0.00	30.320 
23:05	30.7	24.7	30.7	67	21.1	6	12	112	0.00	30.320 
23:10	30.7	24.7	30.7	67	21.1	6	11	112	0.00	30.319 
23:15	30.7	26.6	30.7	68	21.4	4	9	112	0.00	30.317 
23:20	30.7	24.7	30.7	68	21.4	6	10	90	0.00	30.319 
23:25	30.6	25.4	30.6	69	21.7	5	11	90	0.00	30.320 
23:30	30.6	24.6	30.6	69	21.7	6	12	90	0.00	30.318 
23:35	30.6	25.4	30.6	69	21.7	5	11	112	0.00	30.314 
23:40	30.4	25.2	30.4	69	21.5	5	10	112	0.00	30.313 
23:45	30.4	24.3	30.4	69	21.5	6	12	112	0.00	30.316 
23:50	30.4	24.3	30.4	69	21.5	6	13	90	0.00	30.316 
23:55	30.6	24.6	30.6	69	21.7	6	12	112	0.00	30.309 

CoCoRaHS
IN-AL-39
A2 Web Hosting
Creative Commons License
GoDaddy
Look for:

loaded 2017-10-16 18:24:07 • last modified 2010-11-18 10:43:29
Privacy PolicyDisclaimer
• wx.awcolley.com is powered by PmWiki v.2002016 •
• all content (unless otherwise noted) © 2017 A W Colley